createdAt,value
2023-01-29T00:02:05.719Z,8.80
2023-01-29T00:04:32.798Z,9.07
2023-01-29T00:06:59.617Z,8.10
2023-01-29T00:09:26.461Z,10.77
2023-01-29T00:11:53.067Z,9.00
2023-01-29T00:14:20.158Z,9.47
2023-01-29T00:16:46.808Z,9.37
2023-01-29T00:19:13.528Z,7.77
2023-01-29T00:21:40.092Z,8.40
2023-01-29T00:24:06.965Z,8.70
2023-01-29T00:26:33.761Z,8.47
2023-01-29T00:29:03.099Z,7.97
2023-01-29T00:31:30.274Z,11.23
2023-01-29T00:33:57.234Z,10.40
2023-01-29T00:36:25.212Z,9.33
2023-01-29T00:39:00.715Z,8.47
2023-01-29T00:41:50.722Z,8.20
2023-01-29T00:44:36.324Z,9.27
2023-01-29T00:47:03.549Z,7.63
2023-01-29T00:49:33.070Z,9.20
2023-01-29T00:52:18.349Z,8.43
2023-01-29T00:54:44.960Z,7.23
2023-01-29T00:57:11.679Z,8.30
2023-01-29T00:59:38.412Z,7.50
2023-01-29T01:02:23.612Z,7.30
2023-01-29T01:04:50.310Z,8.40
2023-01-29T01:07:16.950Z,7.50
2023-01-29T01:10:02.214Z,9.33
2023-01-29T01:12:29.348Z,9.70
2023-01-29T01:14:56.083Z,8.83
2023-01-29T01:17:22.704Z,8.47
2023-01-29T01:19:49.359Z,9.53
2023-01-29T01:22:16.351Z,9.20
2023-01-29T01:24:42.967Z,15.17
2023-01-29T01:27:09.611Z,10.30
2023-01-29T01:29:36.517Z,14.67
2023-01-29T01:32:03.318Z,15.57
2023-01-29T01:34:29.937Z,21.13
2023-01-29T01:36:56.572Z,18.37
2023-01-29T01:39:24.868Z,20.03
2023-01-29T01:41:55.227Z,18.33
2023-01-29T01:45:10.327Z,12.83
2023-01-29T01:48:05.859Z,13.77
2023-01-29T01:50:39.507Z,15.80
2023-01-29T01:53:11.875Z,9.00
2023-01-29T01:55:43.228Z,8.63
2023-01-29T01:58:12.793Z,11.27
2023-01-29T02:00:39.831Z,16.83
2023-01-29T02:03:26.081Z,8.77
2023-01-29T02:06:12.024Z,8.17
2023-01-29T02:09:06.856Z,9.70
2023-01-29T02:11:33.490Z,9.83
2023-01-29T02:14:00.109Z,8.33
2023-01-29T02:16:26.742Z,7.13
2023-01-29T02:18:53.716Z,7.80
2023-01-29T02:21:47.607Z,8.70
2023-01-29T02:24:23.276Z,8.80
2023-01-29T02:27:37.816Z,8.70
2023-01-29T02:30:18.129Z,8.53
2023-01-29T02:33:02.457Z,8.57
2023-01-29T02:35:55.879Z,8.93
2023-01-29T02:38:28.923Z,9.27
2023-01-29T02:41:04.479Z,10.10
2023-01-29T02:43:36.463Z,9.00
2023-01-29T02:46:06.426Z,9.93
2023-01-29T02:48:44.029Z,10.37
2023-01-29T02:51:39.036Z,9.27
2023-01-29T02:54:17.921Z,10.30
2023-01-29T02:56:59.351Z,10.27
2023-01-29T02:59:39.679Z,16.23
2023-01-29T03:02:14.209Z,21.70
2023-01-29T03:04:45.812Z,20.70
2023-01-29T03:07:44.607Z,23.07
2023-01-29T03:10:25.130Z,19.17
2023-01-29T03:12:56.024Z,19.20
2023-01-29T03:15:28.660Z,20.63
2023-01-29T03:18:02.776Z,18.97
2023-01-29T03:20:33.581Z,17.93
2023-01-29T03:23:12.242Z,17.97
2023-01-29T03:25:58.901Z,16.60
2023-01-29T03:28:45.084Z,16.67
2023-01-29T03:31:31.180Z,16.57
2023-01-29T03:34:16.564Z,18.60
2023-01-29T03:36:55.917Z,20.37
2023-01-29T03:39:25.024Z,22.00
2023-01-29T03:42:04.157Z,18.23
2023-01-29T03:44:34.542Z,20.13
2023-01-29T03:47:07.184Z,20.43
2023-01-29T03:50:02.132Z,16.43
2023-01-29T03:52:46.193Z,18.40
2023-01-29T03:55:18.688Z,17.87
2023-01-29T03:58:01.204Z,20.13
2023-01-29T04:00:37.113Z,19.23
2023-01-29T04:03:18.701Z,18.97
2023-01-29T04:05:51.282Z,19.10
2023-01-29T04:08:25.303Z,17.93
2023-01-29T04:10:53.184Z,17.13
2023-01-29T04:13:20.253Z,16.03
2023-01-29T04:15:51.156Z,18.23
2023-01-29T04:18:17.834Z,18.63
2023-01-29T04:20:44.686Z,17.30
2023-01-29T04:23:27.548Z,19.07
2023-01-29T04:26:21.835Z,17.83
2023-01-29T04:29:16.923Z,16.17
2023-01-29T04:31:57.620Z,13.20
2023-01-29T04:34:28.647Z,14.67
2023-01-29T04:37:17.625Z,19.23
2023-01-29T04:39:50.203Z,20.53
2023-01-29T04:43:05.146Z,20.57
2023-01-29T04:45:59.218Z,20.17
2023-01-29T04:48:49.211Z,21.00
2023-01-29T04:51:56.453Z,21.83
2023-01-29T04:54:32.571Z,20.77
2023-01-29T04:57:11.497Z,22.63
2023-01-29T04:59:50.805Z,26.53
2023-01-29T05:02:18.526Z,22.73
2023-01-29T05:04:46.335Z,29.33
2023-01-29T05:07:14.645Z,25.50
2023-01-29T05:09:44.110Z,16.00
2023-01-29T05:12:11.855Z,19.93
2023-01-29T05:14:40.069Z,27.93
2023-01-29T05:17:10.693Z,34.53
2023-01-29T05:19:37.373Z,21.17
2023-01-29T05:22:05.569Z,14.60
2023-01-29T05:24:32.346Z,7.97
2023-01-29T05:27:17.496Z,7.47
2023-01-29T05:29:46.528Z,8.90
2023-01-29T05:32:13.967Z,8.97
2023-01-29T05:34:40.649Z,5.27
2023-01-29T05:37:07.328Z,7.63
2023-01-29T05:39:33.947Z,6.93
2023-01-29T05:42:00.544Z,11.97
2023-01-29T05:44:27.163Z,16.30
2023-01-29T05:46:53.867Z,7.60
2023-01-29T05:49:20.747Z,7.50
2023-01-29T05:51:47.377Z,9.23
2023-01-29T05:54:14.195Z,9.13
2023-01-29T05:56:40.901Z,11.13
2023-01-29T05:59:07.531Z,8.13
2023-01-29T06:01:34.374Z,10.10
2023-01-29T06:04:01.055Z,8.70
2023-01-29T06:06:27.651Z,9.53
2023-01-29T06:08:54.214Z,9.97
2023-01-29T06:11:21.662Z,9.97
2023-01-29T06:13:48.412Z,9.17
2023-01-29T06:16:15.294Z,11.77
2023-01-29T06:18:42.143Z,10.10
2023-01-29T06:21:11.748Z,12.73
2023-01-29T06:23:38.394Z,14.97
2023-01-29T06:26:11.295Z,16.27
2023-01-29T06:28:38.569Z,17.17
2023-01-29T06:33:52.799Z,19.33
2023-01-29T06:36:19.549Z,14.83
2023-01-29T06:38:47.250Z,14.07
2023-01-29T06:41:17.399Z,17.03
2023-01-29T06:43:44.983Z,12.97
2023-01-29T06:46:11.735Z,11.40
2023-01-29T06:48:38.327Z,10.30
2023-01-29T06:51:07.007Z,12.43
2023-01-29T06:53:34.531Z,11.53
2023-01-29T06:56:01.163Z,9.90
2023-01-29T06:58:27.812Z,11.90
2023-01-29T07:00:54.481Z,12.10
2023-01-29T07:03:21.414Z,15.03
2023-01-29T07:05:52.566Z,14.20
2023-01-29T07:08:22.725Z,14.03
2023-01-29T07:10:50.244Z,15.73
2023-01-29T07:13:17.144Z,21.00
2023-01-29T07:15:44.659Z,16.60
2023-01-29T07:18:14.174Z,14.27
2023-01-29T07:20:42.200Z,15.60
2023-01-29T07:23:15.352Z,24.83
2023-01-29T07:25:42.066Z,24.07
2023-01-29T07:28:08.820Z,51.37
2023-01-29T07:30:35.964Z,16.47
2023-01-29T07:33:08.229Z,15.27
2023-01-29T07:35:39.362Z,22.03
2023-01-29T07:38:06.933Z,21.83
2023-01-29T07:40:33.771Z,44.67
2023-01-29T07:43:01.671Z,28.70
2023-01-29T07:45:29.251Z,38.93
2023-01-29T07:47:56.828Z,28.27
2023-01-29T07:50:27.027Z,23.87
2023-01-29T07:52:56.992Z,13.13
2023-01-29T07:55:24.085Z,24.00
2023-01-29T07:57:58.024Z,23.23
2023-01-29T08:00:24.804Z,25.80
2023-01-29T08:02:51.545Z,38.80
2023-01-29T08:05:18.296Z,22.87
2023-01-29T08:07:49.344Z,16.93
2023-01-29T08:10:24.311Z,17.43
2023-01-29T08:12:59.320Z,24.53
2023-01-29T08:15:26.431Z,23.37
2023-01-29T08:17:57.939Z,26.67
2023-01-29T08:20:25.100Z,22.40
2023-01-29T08:23:02.499Z,34.97
2023-01-29T08:25:29.844Z,19.08
2023-01-29T08:27:57.992Z,16.80
2023-01-29T08:30:32.915Z,20.83
2023-01-29T08:32:59.593Z,23.27
2023-01-29T08:35:26.712Z,29.30
2023-01-29T08:38:00.805Z,20.70
2023-01-29T08:40:28.914Z,24.20
2023-01-29T08:43:02.091Z,20.40
2023-01-29T08:45:30.341Z,17.70
2023-01-29T08:47:57.188Z,30.27
2023-01-29T08:50:23.849Z,26.13
2023-01-29T08:52:50.811Z,43.73
2023-01-29T08:55:17.853Z,24.90
2023-01-29T08:57:44.730Z,38.00
2023-01-29T09:00:12.081Z,24.63
2023-01-29T09:02:38.733Z,17.93
2023-01-29T09:05:06.032Z,25.37
2023-01-29T09:07:32.930Z,30.90
2023-01-29T09:09:59.571Z,21.90
2023-01-29T09:12:26.276Z,25.20
2023-01-29T09:14:53.045Z,23.37
2023-01-29T09:17:19.695Z,24.80
2023-01-29T09:19:46.314Z,22.43
2023-01-29T09:22:12.997Z,22.20
2023-01-29T09:24:39.652Z,23.53
2023-01-29T09:27:06.377Z,22.13
2023-01-29T09:29:35.657Z,28.47
2023-01-29T09:32:03.828Z,30.40
2023-01-29T09:34:30.402Z,33.40
2023-01-29T09:36:57.105Z,21.97
2023-01-29T09:39:23.718Z,22.07
2023-01-29T09:42:00.315Z,21.60
2023-01-29T09:45:08.913Z,23.43
2023-01-29T09:47:36.594Z,23.63
2023-01-29T09:50:12.708Z,22.07
2023-01-29T09:52:42.739Z,22.40
2023-01-29T09:55:25.362Z,23.63
2023-01-29T09:57:57.769Z,22.80
2023-01-29T10:00:42.715Z,21.27
2023-01-29T10:03:42.921Z,21.03
2023-01-29T10:06:15.914Z,21.53
2023-01-29T10:08:51.720Z,27.63
2023-01-29T10:11:27.629Z,21.80
2023-01-29T10:14:19.885Z,19.13
2023-01-29T10:16:53.488Z,19.97
2023-01-29T10:19:44.737Z,23.60
2023-01-29T10:22:28.933Z,22.33
2023-01-29T10:25:04.893Z,36.80
2023-01-29T10:27:38.519Z,41.70
2023-01-29T10:30:21.331Z,32.47
2023-01-29T10:32:48.912Z,26.90
2023-01-29T10:35:36.073Z,27.67
2023-01-29T10:38:15.161Z,29.90
2023-01-29T10:40:49.187Z,31.30
2023-01-29T10:43:40.575Z,38.77
2023-01-29T10:46:28.474Z,34.60
2023-01-29T10:49:05.293Z,33.07
2023-01-29T10:51:45.154Z,31.50
2023-01-29T10:54:27.748Z,30.80
2023-01-29T10:56:57.288Z,32.13
2023-01-29T10:59:33.566Z,28.10
2023-01-29T11:02:00.611Z,28.43
2023-01-29T11:04:28.526Z,26.67
2023-01-29T11:06:55.120Z,22.37
2023-01-29T11:09:29.287Z,29.77
2023-01-29T11:12:03.581Z,20.70
2023-01-29T11:14:37.684Z,21.13
2023-01-29T11:17:04.682Z,20.87
2023-01-29T11:19:43.147Z,21.23
2023-01-29T11:22:15.595Z,24.90
2023-01-29T11:24:42.629Z,26.50
2023-01-29T11:27:29.597Z,26.50
2023-01-29T11:29:56.480Z,30.33
2023-01-29T11:32:23.020Z,22.60
2023-01-29T11:35:03.226Z,25.40
2023-01-29T11:37:38.009Z,26.13
2023-01-29T11:40:19.989Z,27.53
2023-01-29T11:42:47.409Z,33.50
2023-01-29T11:45:20.093Z,38.13
2023-01-29T11:47:50.989Z,34.73
2023-01-29T11:50:31.182Z,52.83
2023-01-29T11:53:01.503Z,30.17
2023-01-29T11:55:48.199Z,28.80
2023-01-29T11:58:19.218Z,28.00
2023-01-29T12:00:49.982Z,29.27
2023-01-29T12:03:24.929Z,35.90
2023-01-29T12:06:18.949Z,39.07
2023-01-29T12:08:58.170Z,30.40
2023-01-29T12:11:34.021Z,31.93
2023-01-29T12:14:05.883Z,35.80
2023-01-29T12:16:47.945Z,35.40
2023-01-29T12:19:26.537Z,37.60
2023-01-29T12:21:58.414Z,23.80
2023-01-29T12:24:43.695Z,31.67
2023-01-29T12:27:16.287Z,53.22
2023-01-29T12:29:53.049Z,42.37
2023-01-29T12:32:25.701Z,47.67
2023-01-29T12:35:26.491Z,47.13
2023-01-29T12:38:02.685Z,25.46
2023-01-29T12:40:39.347Z,32.93
2023-01-29T12:43:13.561Z,32.90
2023-01-29T12:45:42.196Z,28.00
2023-01-29T12:48:12.090Z,60.33
2023-01-29T12:50:38.789Z,42.90
2023-01-29T12:53:27.874Z,27.27
2023-01-29T12:56:00.572Z,31.17
2023-01-29T12:58:37.642Z,37.33
2023-01-29T13:01:10.854Z,34.30
2023-01-29T13:03:52.303Z,36.60
2023-01-29T13:06:23.341Z,45.90
2023-01-29T13:08:56.972Z,28.90
2023-01-29T13:11:29.584Z,30.70
2023-01-29T13:14:09.654Z,21.30
2023-01-29T13:16:39.194Z,23.97
2023-01-29T13:19:15.092Z,22.80
2023-01-29T13:21:43.960Z,38.23
2023-01-29T13:24:25.724Z,30.07
2023-01-29T13:26:52.473Z,30.17
2023-01-29T13:29:29.862Z,45.93
2023-01-29T13:32:01.297Z,27.97
2023-01-29T13:34:33.631Z,31.77
2023-01-29T13:37:43.837Z,33.83
2023-01-29T13:40:22.016Z,19.43
2023-01-29T13:42:50.060Z,27.53
2023-01-29T13:45:30.101Z,33.07
2023-01-29T13:48:09.706Z,29.10
2023-01-29T13:50:39.264Z,27.57
2023-01-29T13:53:06.878Z,25.97
2023-01-29T13:55:39.095Z,26.30
2023-01-29T13:58:07.108Z,27.03
2023-01-29T14:00:33.691Z,37.70
2023-01-29T14:03:00.231Z,30.50
2023-01-29T14:05:29.842Z,40.80
2023-01-29T14:08:15.347Z,35.93
2023-01-29T14:10:43.208Z,30.73
2023-01-29T14:13:18.078Z,44.30
2023-01-29T14:15:46.233Z,41.93
2023-01-29T14:18:21.010Z,37.53
2023-01-29T14:20:47.539Z,37.37
2023-01-29T14:23:44.503Z,27.47
2023-01-29T14:26:26.155Z,42.93
2023-01-29T14:28:56.882Z,33.80
2023-01-29T14:31:32.731Z,55.70
2023-01-29T14:34:04.008Z,44.57
2023-01-29T14:36:39.547Z,32.07
2023-01-29T14:39:06.778Z,114.37
2023-01-29T14:41:34.596Z,183.87
2023-01-29T14:44:45.792Z,32.23
2023-01-29T14:47:22.196Z,31.16
2023-01-29T14:49:49.751Z,23.23
2023-01-29T14:52:19.204Z,36.20
2023-01-29T14:54:47.571Z,45.97
2023-01-29T14:57:17.058Z,27.57
2023-01-29T14:59:49.679Z,44.13
2023-01-29T15:02:25.278Z,30.30
2023-01-29T15:04:55.217Z,29.07
2023-01-29T15:07:36.203Z,33.53
2023-01-29T15:10:22.765Z,22.93
2023-01-29T15:13:03.342Z,27.47
2023-01-29T15:15:33.356Z,34.23
2023-01-29T15:18:12.965Z,29.80
2023-01-29T15:20:40.920Z,48.30
2023-01-29T15:23:22.902Z,122.30
2023-01-29T15:25:54.553Z,42.40
2023-01-29T15:28:21.903Z,42.73
2023-01-29T15:30:55.865Z,37.53
2023-01-29T15:33:22.578Z,34.43
2023-01-29T15:35:51.675Z,45.00
2023-01-29T15:38:22.174Z,73.13
2023-01-29T15:40:56.808Z,48.17
2023-01-29T15:43:31.631Z,57.43
2023-01-29T15:46:01.268Z,76.83
2023-01-29T15:48:35.048Z,49.20
2023-01-29T15:51:04.872Z,52.40
2023-01-29T15:53:36.048Z,56.30
2023-01-29T15:56:02.851Z,46.57
2023-01-29T15:58:32.170Z,61.07
2023-01-29T16:01:00.523Z,69.03
2023-01-29T16:03:31.018Z,83.77
2023-01-29T16:05:58.335Z,67.23
2023-01-29T16:08:26.160Z,51.37
2023-01-29T16:10:58.664Z,55.93
2023-01-29T16:13:28.195Z,95.57
2023-01-29T16:16:01.845Z,51.47
2023-01-29T16:18:41.045Z,30.00
2023-01-29T16:21:36.529Z,47.90
2023-01-29T16:24:15.772Z,39.33
2023-01-29T16:26:44.472Z,41.73
2023-01-29T16:29:13.618Z,40.37
2023-01-29T16:31:40.715Z,42.23
2023-01-29T16:34:10.324Z,37.40
2023-01-29T16:36:38.507Z,43.93
2023-01-29T16:39:06.738Z,40.83
2023-01-29T16:41:36.059Z,53.73
2023-01-29T16:44:04.418Z,43.07
2023-01-29T16:46:39.001Z,45.50
2023-01-29T16:49:25.923Z,39.27
2023-01-29T16:51:53.695Z,41.00
2023-01-29T16:54:27.724Z,36.27
2023-01-29T16:57:00.007Z,68.10
2023-01-29T16:59:37.815Z,45.63
2023-01-29T17:02:05.023Z,62.83
2023-01-29T17:04:33.213Z,37.93
2023-01-29T17:07:01.260Z,169.73
2023-01-29T17:09:34.663Z,64.07
2023-01-29T17:12:05.014Z,63.93
2023-01-29T17:14:33.217Z,83.50
2023-01-29T17:17:12.808Z,129.70
2023-01-29T17:19:39.400Z,55.87
2023-01-29T17:22:08.548Z,57.90
2023-01-29T17:24:35.413Z,51.80
2023-01-29T17:27:02.305Z,48.03
2023-01-29T17:29:30.537Z,39.43
2023-01-29T17:32:01.117Z,44.07
2023-01-29T17:34:27.754Z,35.93
2023-01-29T17:36:54.459Z,38.90
2023-01-29T17:39:23.639Z,32.17
2023-01-29T17:41:52.505Z,42.77
2023-01-29T17:44:19.264Z,42.17
2023-01-29T17:46:46.480Z,36.17
2023-01-29T17:49:33.742Z,35.60
2023-01-29T17:52:00.394Z,35.63
2023-01-29T17:54:27.124Z,34.77
2023-01-29T17:56:54.381Z,28.77
2023-01-29T17:59:29.617Z,40.67
2023-01-29T18:01:56.344Z,31.57
2023-01-29T18:04:23.259Z,36.73
2023-01-29T18:06:52.775Z,36.70
2023-01-29T18:09:21.810Z,35.20
2023-01-29T18:11:51.345Z,37.50
2023-01-29T18:14:18.327Z,34.03
2023-01-29T18:16:45.662Z,33.50
2023-01-29T18:19:23.879Z,21.60
2023-01-29T18:21:50.817Z,25.83
2023-01-29T18:24:17.881Z,29.47
2023-01-29T18:26:44.708Z,28.10
2023-01-29T18:29:11.456Z,27.37
2023-01-29T18:31:38.248Z,42.07
2023-01-29T18:34:05.198Z,40.33
2023-01-29T18:36:34.608Z,52.37
2023-01-29T18:39:01.272Z,47.63
2023-01-29T18:41:27.933Z,33.23
2023-01-29T18:43:54.575Z,35.58
2023-01-29T18:46:22.533Z,26.97
2023-01-29T18:48:50.418Z,35.75
2023-01-29T18:51:17.066Z,39.90
2023-01-29T18:53:45.375Z,39.93
2023-01-29T18:56:13.234Z,36.93
2023-01-29T18:58:40.185Z,36.87
2023-01-29T19:01:10.116Z,34.23
2023-01-29T19:03:37.304Z,27.53
2023-01-29T19:06:05.776Z,24.30
2023-01-29T19:08:33.538Z,33.23
2023-01-29T19:11:02.576Z,29.63
2023-01-29T19:13:30.391Z,32.57
2023-01-29T19:15:57.137Z,29.23
2023-01-29T19:18:26.156Z,28.93
2023-01-29T19:20:53.470Z,32.67
2023-01-29T19:23:20.478Z,26.40
2023-01-29T19:25:47.527Z,33.20
2023-01-29T19:28:14.698Z,27.87
2023-01-29T19:30:41.391Z,27.33
2023-01-29T19:33:09.810Z,46.83
2023-01-29T19:35:36.505Z,41.17
2023-01-29T19:38:04.428Z,30.30
2023-01-29T19:40:31.450Z,56.50
2023-01-29T19:42:58.923Z,37.03
2023-01-29T19:45:49.869Z,31.33
2023-01-29T19:48:14.657Z,27.20
2023-01-29T19:50:42.433Z,29.30
2023-01-29T19:53:10.911Z,30.23
2023-01-29T19:55:37.635Z,29.80
2023-01-29T19:58:04.826Z,33.27
2023-01-29T20:00:31.565Z,30.87
2023-01-29T20:02:59.249Z,24.00
2023-01-29T20:05:27.157Z,26.07
2023-01-29T20:07:54.015Z,28.73
2023-01-29T20:10:20.889Z,26.10
2023-01-29T20:12:47.688Z,30.93
2023-01-29T20:15:14.961Z,23.10
2023-01-29T20:17:41.653Z,48.57
2023-01-29T20:20:09.007Z,35.50
2023-01-29T20:22:35.805Z,31.50
2023-01-29T20:25:02.525Z,35.97
2023-01-29T20:27:29.189Z,21.33
2023-01-29T20:29:55.931Z,25.93
2023-01-29T20:32:22.620Z,18.53
2023-01-29T20:34:52.174Z,25.53
2023-01-29T20:37:19.495Z,22.60
2023-01-29T20:39:46.238Z,21.37
2023-01-29T20:42:13.056Z,32.10
2023-01-29T20:44:39.655Z,24.33
2023-01-29T20:47:06.449Z,18.00
2023-01-29T20:49:33.163Z,19.77
2023-01-29T20:51:59.751Z,18.87
2023-01-29T20:54:26.497Z,15.70
2023-01-29T20:56:53.296Z,15.53
2023-01-29T20:59:20.032Z,17.90
2023-01-29T21:01:46.820Z,20.63
2023-01-29T21:04:13.499Z,20.57
2023-01-29T21:06:40.155Z,21.83
2023-01-29T21:09:06.925Z,20.87
2023-01-29T21:11:33.758Z,25.67
2023-01-29T21:14:01.874Z,19.07
2023-01-29T21:16:28.664Z,18.20
2023-01-29T21:18:56.907Z,21.13
2023-01-29T21:21:23.912Z,19.57
2023-01-29T21:23:50.600Z,20.00
2023-01-29T21:26:17.323Z,15.53
2023-01-29T21:28:43.965Z,18.37
2023-01-29T21:31:11.819Z,21.13
2023-01-29T21:33:38.582Z,21.60
2023-01-29T21:36:05.631Z,21.83
2023-01-29T21:38:32.540Z,22.83
2023-01-29T21:41:04.561Z,20.90
2023-01-29T21:43:31.273Z,25.93
2023-01-29T21:45:59.440Z,24.93
2023-01-29T21:48:26.944Z,28.30
2023-01-29T21:50:53.892Z,26.33
2023-01-29T21:53:20.749Z,24.03
2023-01-29T21:55:47.510Z,24.03
2023-01-29T21:58:14.851Z,27.83
2023-01-29T22:00:41.609Z,18.07
2023-01-29T22:03:08.400Z,23.57
2023-01-29T22:05:35.121Z,25.57
2023-01-29T22:08:02.494Z,30.77
2023-01-29T22:10:30.610Z,23.90
2023-01-29T22:12:59.717Z,21.60
2023-01-29T22:15:28.420Z,21.97
2023-01-29T22:17:55.050Z,18.17
2023-01-29T22:20:29.667Z,18.42
2023-01-29T22:22:58.485Z,20.03
2023-01-29T22:25:25.129Z,18.30
2023-01-29T22:27:51.851Z,20.27
2023-01-29T22:30:19.113Z,21.50
2023-01-29T22:32:45.949Z,17.23
2023-01-29T22:35:12.549Z,20.70
2023-01-29T22:37:39.187Z,20.03
2023-01-29T22:40:09.564Z,16.80
2023-01-29T22:42:36.221Z,20.63
2023-01-29T22:45:02.890Z,23.97
2023-01-29T22:47:29.494Z,18.23
2023-01-29T22:49:56.157Z,19.87
2023-01-29T22:52:23.032Z,19.07
2023-01-29T22:54:51.510Z,18.43
2023-01-29T22:57:19.337Z,20.83
2023-01-29T22:59:46.083Z,20.73
2023-01-29T23:02:12.703Z,19.03
2023-01-29T23:04:39.333Z,19.50
2023-01-29T23:07:05.994Z,20.20
2023-01-29T23:09:32.656Z,21.93
2023-01-29T23:11:59.475Z,21.13
2023-01-29T23:14:26.024Z,19.50
2023-01-29T23:16:52.629Z,19.03
2023-01-29T23:19:19.337Z,21.90
2023-01-29T23:21:45.981Z,20.60
2023-01-29T23:24:13.134Z,18.70
2023-01-29T23:26:58.343Z,26.27
2023-01-29T23:29:25.654Z,17.77
2023-01-29T23:31:52.389Z,19.30
2023-01-29T23:34:19.090Z,19.27
2023-01-29T23:36:45.723Z,19.93
2023-01-29T23:39:12.488Z,18.43
2023-01-29T23:41:39.058Z,18.23
2023-01-29T23:44:05.836Z,19.10
2023-01-29T23:46:32.903Z,17.60
2023-01-29T23:48:59.630Z,18.10
2023-01-29T23:51:26.343Z,15.87
2023-01-29T23:53:53.232Z,14.10
2023-01-29T23:56:19.892Z,16.83
2023-01-29T23:58:46.594Z,17.37
